Terminal Aerodrome Forecast
Issued by NWS

Home | Current Version | Previous Version | Text Only | Print | Product List | Glossary On
Versions: 1 2 3 4 5 6 7 8 9 10 11 12 13 14 15 16 17 18 19 20 21 22 23 24 25 26
660
FTUS44 KLZK 060531
TAFHRO
TAF
KHRO 060531Z 0606/0706 VRB03KT 5SM -RA BR BKN005 OVC015
      TEMPO 0606/0610 1SM -SHRA BR OVC003
     FM061000 32010G18KT 2SM BR OVC015
      TEMPO 0612/0616 2SM -DZ BR
     FM061800 35008G15KT P6SM SCT015 BKN250=

USA.gov is the U.S. government's official web portal to all federal, state and local government web resources and services.